Terminal Aerodrome Forecast
Issued by NWS

Home | Current Version | Previous Version | Text Only | Print | Product List | Glossary On
Versions: 1 2 3 4 5 6 7 8 9 10 11 12 13 14 15 16 17 18 19 20 21
795
FTUS43 KSGF 260520
TAFJLN
TAF
KJLN 260520Z 2606/2706 18010KT P6SM BKN040
     FM260900 18010KT P6SM OVC020
     FM261200 17009KT 5SM BR SCT005 OVC010
     FM261500 17014G22KT P6SM VCTS BKN015CB
     FM261700 17015G23KT P6SM VCTS BKN030CB
     FM270000 18013KT P6SM SCT030 OVC200
     FM270300 17013KT P6SM OVC050=

USA.gov is the U.S. government's official web portal to all federal, state and local government web resources and services.